<?xml version='1.0' encoding='UTF-8'?>
<gpx xmlns="http://www.topografix.com/GPX/1/1" creator="www.balnam.be" version="1.1" xmlns:xsi="http://www.w3.org/2001/XMLSchema-instance" xsi:schemaLocation="http://www.topografix.com/GPX/1/1 http://www.topografix.com/GPX/1/1/gpx.xsd">
<trk>
<name>lsoso3</name>
<cmt>v</cmt>
<desc>Stoumont Chemin n°3 </desc>
<link href="https://chemins.be/stoumont/chemin/3"/><trkseg>
<trkpt lat="50.413688" lon="5.783159"><time>2026-05-02T18:31:08Z</time></trkpt>
<trkpt lat="50.413809" lon="5.783373"><time>2026-05-02T18:41:08Z</time></trkpt>
<trkpt lat="50.413786" lon="5.783986"><time>2026-05-02T18:51:08Z</time></trkpt>
</trkseg></trk>
<trk>
<name>lsoso3</name>
<cmt>d</cmt>
<desc>Stoumont Chemin n°3 </desc>
<link href="https://chemins.be/stoumont/chemin/3"/><trkseg>
<trkpt lat="50.413786" lon="5.783986"><time>2026-05-02T18:51:08Z</time></trkpt>
<trkpt lat="50.414114" lon="5.784985"><time>2026-05-02T19:01:08Z</time></trkpt>
<trkpt lat="50.415001" lon="5.785935"><time>2026-05-02T19:11:08Z</time></trkpt>
<trkpt lat="50.415569" lon="5.785960"><time>2026-05-02T19:21:08Z</time></trkpt>
<trkpt lat="50.416165" lon="5.783858"><time>2026-05-02T19:31:08Z</time></trkpt>
<trkpt lat="50.417205" lon="5.782647"><time>2026-05-02T19:41:08Z</time></trkpt>
<trkpt lat="50.420994" lon="5.783008"><time>2026-05-02T19:51:08Z</time></trkpt>
</trkseg></trk>
<trk>
<name>lsoso3</name>
<cmt>v</cmt>
<desc>Stoumont Chemin n°3 </desc>
<link href="https://chemins.be/stoumont/chemin/3"/><trkseg>
<trkpt lat="50.420994" lon="5.783008"><time>2026-05-02T19:51:08Z</time></trkpt>
<trkpt lat="50.421727" lon="5.782381"><time>2026-05-02T20:01:08Z</time></trkpt>
<trkpt lat="50.423537" lon="5.781695"><time>2026-05-02T20:11:08Z</time></trkpt>
<trkpt lat="50.425254" lon="5.782184"><time>2026-05-02T20:21:08Z</time></trkpt>
<trkpt lat="50.426299" lon="5.781832"><time>2026-05-02T20:31:08Z</time></trkpt>
<trkpt lat="50.426889" lon="5.781961"><time>2026-05-02T20:41:08Z</time></trkpt>
<trkpt lat="50.427310" lon="5.782398"><time>2026-05-02T20:51:08Z</time></trkpt>
</trkseg></trk>
<trk>
<name>lsoso3</name>
<cmt>d</cmt>
<desc>Stoumont Chemin n°3 </desc>
<link href="https://chemins.be/stoumont/chemin/3"/><trkseg>
<trkpt lat="50.427310" lon="5.782398"><time>2026-05-02T20:51:08Z</time></trkpt>
<trkpt lat="50.428132" lon="5.784512"><time>2026-05-02T21:01:08Z</time></trkpt>
</trkseg></trk>
<trk>
<name>lsoso3</name>
<cmt>q</cmt>
<desc>Stoumont Chemin n°3 </desc>
<link href="https://chemins.be/stoumont/chemin/3"/><trkseg>
<trkpt lat="50.428132" lon="5.784512"><time>2026-05-02T21:01:08Z</time></trkpt>
<trkpt lat="50.429459" lon="5.786527"><time>2026-05-02T21:11:08Z</time></trkpt>
<trkpt lat="50.434370" lon="5.783907"><time>2026-05-02T21:21:08Z</time></trkpt>
</trkseg></trk>
<trk>
<name>lsoso3</name>
<cmt>v</cmt>
<desc>Stoumont Chemin n°3 </desc>
<link href="https://chemins.be/stoumont/chemin/3"/><trkseg>
<trkpt lat="50.434370" lon="5.783907"><time>2026-05-02T21:21:08Z</time></trkpt>
<trkpt lat="50.434493" lon="5.783692"><time>2026-05-02T21:31:08Z</time></trkpt>
<trkpt lat="50.434981" lon="5.783721"><time>2026-05-02T21:41:08Z</time></trkpt>
<trkpt lat="50.435173" lon="5.783660"><time>2026-05-02T21:51:08Z</time></trkpt>
</trkseg>
</trk>
</gpx>